Time;durP1;ratioP1;P1;durP2;ratioP2;P2;SDS_P1;SDS_P2;PMS_P1;PMS_P2;Temp;Humidity;BMP_temperature;BMP_pressure;BME280_temperature;BME280_humidity;BME280_pressure;Samples;Min_cycle;Max_cycle;Signal;HPM_P1;HPM_P2
2022/08/15 00:02:22;;;;;;;0.67;0.30;;;;;;;18.66;100.00;94606.63;5072851;28;20468;-62
2022/08/15 00:05:10;;;;;;;0.70;0.30;;;;;;;19.06;100.00;94611.25;5072897;28;20432;-62
2022/08/15 00:07:40;;;;;;;0.50;0.40;;;;;;;19.01;100.00;94604.22;5072835;28;20913;-62
2022/08/15 00:10:19;;;;;;;3.13;1.63;;;;;;;18.30;100.00;94622.69;5072562;28;20982;-62
2022/08/15 00:13:12;;;;;;;0.77;0.73;;;;;;;18.08;100.00;94610.47;5072689;28;20445;-62
2022/08/15 00:15:43;;;;;;;0.40;0.20;;;;;;;18.31;100.00;94608.16;5073019;28;20417;-62
2022/08/15 00:18:13;;;;;;;1.10;0.50;;;;;;;18.77;100.00;94618.44;5072801;28;20609;-62
2022/08/15 00:20:43;;;;;;;0.40;0.20;;;;;;;18.99;100.00;94609.16;5072793;28;20420;-61
2022/08/15 00:23:20;;;;;;;0.50;0.47;;;;;;;19.08;100.00;94607.09;5073055;28;20544;-62
2022/08/15 00:25:57;;;;;;;0.60;0.40;;;;;;;19.05;100.00;94610.47;5072693;28;20432;-61
2022/08/15 00:28:46;;;;;;;0.40;0.30;;;;;;;19.02;100.00;94609.22;5072961;28;20447;-62
2022/08/15 00:31:24;;;;;;;0.40;0.20;;;;;;;19.12;100.00;94609.91;5072637;28;20425;-62
2022/08/15 00:34:09;;;;;;;0.40;0.30;;;;;;;19.05;100.00;94602.41;5072940;28;20873;-61
2022/08/15 00:36:59;;;;;;;0.50;0.33;;;;;;;18.81;100.00;94603.25;5072510;28;20455;-62
2022/08/15 00:39:29;;;;;;;3.27;0.30;;;;;;;18.45;100.00;94613.97;5072582;28;20944;-62
2022/08/15 00:42:06;;;;;;;0.63;0.53;;;;;;;18.70;100.00;94601.34;5072464;28;20425;-62
2022/08/15 00:44:44;;;;;;;0.40;0.20;;;;;;;18.86;100.00;94604.91;5072965;28;20444;-62
2022/08/15 00:47:32;;;;;;;0.40;0.20;;;;;;;18.62;100.00;94559.31;5072121;28;20437;-62
2022/08/15 00:50:08;;;;;;;1.00;0.70;;;;;;;18.30;100.00;94610.06;5072383;28;20418;-61
2022/08/15 00:52:59;;;;;;;0.60;0.50;;;;;;;17.38;100.00;94594.63;5072557;28;20452;-61
2022/08/15 00:55:29;;;;;;;0.53;0.50;;;;;;;17.88;100.00;94597.13;5072259;28;20508;-61
2022/08/15 00:58:01;;;;;;;0.50;0.40;;;;;;;18.04;100.00;94568.53;5072238;28;20418;-62
2022/08/15 01:00:35;;;;;;;0.90;0.33;;;;;;;18.54;100.00;94621.94;5072023;28;20524;-61
2022/08/15 01:03:10;;;;;;;0.40;0.30;;;;;;;18.59;100.00;94606.41;5071938;28;20468;-62
2022/08/15 01:05:45;;;;;;;2.10;0.40;;;;;;;18.70;100.00;94625.50;5072392;28;20941;-62
2022/08/15 01:08:16;;;;;;;0.40;0.30;;;;;;;18.72;100.00;94623.28;5072065;28;20422;-62
2022/08/15 01:10:48;;;;;;;0.83;0.83;;;;;;;18.54;100.00;94627.31;5072303;28;20413;-61
2022/08/15 01:13:33;;;;;;;0.83;0.83;;;;;;;18.34;100.00;94626.28;5072013;28;20445;-62
2022/08/15 01:16:24;;;;;;;0.40;0.30;;;;;;;17.89;100.00;94586.06;5071966;28;20448;-62
2022/08/15 01:19:04;;;;;;;0.50;0.50;;;;;;;18.49;100.00;94635.59;5071924;28;20480;-62
2022/08/15 01:21:48;;;;;;;0.60;0.60;;;;;;;18.65;100.00;94647.19;5071879;28;20429;-62
2022/08/15 01:24:56;;;;;;;0.40;0.30;;;;;;;18.17;100.00;94640.66;5071606;28;20476;-61
2022/08/15 01:27:50;;;;;;;0.70;0.60;;;;;;;17.65;100.00;94635.06;5072073;28;20428;-62
2022/08/15 01:30:23;;;;;;;1.47;1.37;;;;;;;16.99;100.00;94650.19;5072025;28;20451;-62
2022/08/15 01:33:13;;;;;;;0.50;0.30;;;;;;;17.57;100.00;94637.81;5071968;28;20429;-62
2022/08/15 01:35:45;;;;;;;0.53;0.47;;;;;;;17.55;100.00;94587.22;5071679;28;20456;-62
2022/08/15 01:38:26;;;;;;;0.60;0.60;;;;;;;17.76;100.00;94648.81;5072232;28;20423;-62
2022/08/15 01:41:23;;;;;;;1.80;0.50;;;;;;;17.97;100.00;94643.41;5076983;28;20949;-61
2022/08/15 01:44:10;;;;;;;0.50;0.30;;;;;;;17.84;100.00;94644.47;5078031;28;20468;-62
2022/08/15 01:47:06;;;;;;;0.60;0.53;;;;;;;17.66;100.00;94650.00;5078145;28;20960;-62
2022/08/15 01:49:49;;;;;;;0.40;0.30;;;;;;;17.96;100.00;94631.88;5078125;28;20428;-62
2022/08/15 01:52:32;;;;;;;3.33;1.00;;;;;;;17.78;100.00;94582.28;5078600;28;20429;-62
2022/08/15 01:55:27;;;;;;;0.40;0.20;;;;;;;18.04;100.00;94631.00;5078255;28;20437;-62
2022/08/15 01:58:05;;;;;;;0.47;0.37;;;;;;;17.97;100.00;94635.34;5078228;28;20905;-62
2022/08/15 02:00:37;;;;;;;0.40;0.30;;;;;;;17.95;100.00;94638.38;5078502;28;20438;-62
2022/08/15 02:03:11;;;;;;;0.80;0.77;;;;;;;18.23;100.00;94649.28;5078122;28;20460;-61
2022/08/15 02:05:48;;;;;;;0.50;0.30;;;;;;;18.32;100.00;94634.63;5078182;28;20432;-62
2022/08/15 02:08:25;;;;;;;0.73;0.30;;;;;;;17.90;100.00;94573.47;5078484;28;20806;-61
2022/08/15 02:11:04;;;;;;;0.50;0.30;;;;;;;18.41;100.00;94642.59;5078455;28;20484;-62
2022/08/15 02:13:54;;;;;;;0.70;0.70;;;;;;;18.33;100.00;94635.44;5078372;28;20428;-62
2022/08/15 02:16:27;;;;;;;0.87;0.70;;;;;;;18.03;100.00;94605.34;5077946;28;20949;-62
2022/08/15 02:18:56;;;;;;;0.87;0.40;;;;;;;17.77;100.00;94672.63;5077611;28;20534;-62
2022/08/15 02:21:28;;;;;;;0.83;0.83;;;;;;;17.60;100.00;94669.31;5078049;28;20805;-61
2022/08/15 02:24:08;;;;;;;0.50;0.40;;;;;;;17.96;100.00;94666.75;5077558;28;20460;-62
2022/08/15 02:26:49;;;;;;;0.60;0.40;;;;;;;17.33;100.00;94574.16;5078034;28;20417;-62
2022/08/15 02:29:22;;;;;;;0.40;0.30;;;;;;;17.81;100.00;94674.63;5078217;28;20490;-62
2022/08/15 02:31:53;;;;;;;0.40;0.30;;;;;;;18.22;100.00;94675.31;5077614;28;20421;-61
2022/08/15 02:34:25;;;;;;;0.40;0.20;;;;;;;18.35;100.00;94674.22;5077404;28;20788;-62
2022/08/15 02:37:18;;;;;;;0.40;0.30;;;;;;;18.20;100.00;94671.38;5077597;28;20436;-62
2022/08/15 02:39:52;;;;;;;0.50;0.30;;;;;;;17.67;100.00;94680.28;5077252;28;20511;-62
2022/08/15 02:42:26;;;;;;;1.00;1.00;;;;;;;17.45;100.00;94672.56;5077619;28;20512;-62
2022/08/15 02:44:56;;;;;;;1.27;0.63;;;;;;;17.18;100.00;94676.50;5077765;28;20588;-61
2022/08/15 02:47:25;;;;;;;0.50;0.40;;;;;;;17.40;100.00;94670.88;5077501;28;20916;-61
2022/08/15 02:49:54;;;;;;;0.97;0.60;;;;;;;17.43;100.00;94672.88;5077447;28;20428;-61
2022/08/15 02:52:23;;;;;;;0.60;0.60;;;;;;;17.70;100.00;94668.91;5073902;28;20428;-61
2022/08/15 02:54:52;;;;;;;0.50;0.30;;;;;;;17.98;100.00;94659.16;5074616;28;20445;-62
2022/08/15 02:57:27;;;;;;;0.40;0.30;;;;;;;18.17;100.00;94666.69;5074443;28;20801;-62
2022/08/15 02:59:58;;;;;;;0.60;0.60;;;;;;;18.11;100.00;94662.66;5073906;28;20422;-61
2022/08/15 03:02:53;;;;;;;0.87;0.87;;;;;;;18.14;100.00;94668.13;5074401;28;20437;-61
2022/08/15 03:05:23;;;;;;;0.50;0.30;;;;;;;18.21;100.00;94679.13;5074072;28;20465;-62
2022/08/15 03:07:52;;;;;;;0.50;0.50;;;;;;;17.82;100.00;94604.59;5074134;28;20516;-61
2022/08/15 03:10:22;;;;;;;0.50;0.50;;;;;;;17.10;100.00;94490.72;5073386;28;20793;-61
2022/08/15 03:13:00;;;;;;;0.40;0.30;;;;;;;18.33;100.00;94662.25;5073967;28;20929;-61
2022/08/15 03:15:32;;;;;;;1.53;0.30;;;;;;;17.96;100.00;94664.06;5073943;28;20513;-61
2022/08/15 03:18:02;;;;;;;0.40;0.30;;;;;;;17.98;100.00;94659.16;5073725;28;20993;-61
2022/08/15 03:20:31;;;;;;;0.60;0.43;;;;;;;18.11;100.00;94652.72;5073824;28;20437;-61
2022/08/15 03:23:04;;;;;;;0.40;0.27;;;;;;;18.02;100.00;94657.38;5073814;28;20425;-60
2022/08/15 03:25:33;;;;;;;0.50;0.33;;;;;;;17.87;100.00;94649.19;5073707;28;20493;-61
2022/08/15 03:28:22;;;;;;;0.40;0.27;;;;;;;17.98;100.00;94648.44;5073430;28;20421;-61
2022/08/15 03:30:58;;;;;;;0.60;0.43;;;;;;;17.80;100.00;94659.66;5074152;28;20432;-62
2022/08/15 03:33:27;;;;;;;0.40;0.30;;;;;;;17.91;100.00;94663.50;5073434;28;20429;-61
2022/08/15 03:36:18;;;;;;;0.50;0.30;;;;;;;18.06;100.00;94670.91;5073402;28;20445;-62
2022/08/15 03:38:51;;;;;;;0.40;0.20;;;;;;;18.04;100.00;94667.75;5073354;28;20812;-61
2022/08/15 03:41:25;;;;;;;1.53;0.47;;;;;;;18.20;100.00;94666.81;5073315;28;20428;-62
2022/08/15 03:43:54;;;;;;;0.50;0.40;;;;;;;18.16;100.00;94665.13;5073176;28;20426;-62
2022/08/15 03:46:24;;;;;;;0.40;0.30;;;;;;;18.16;100.00;94647.16;5073569;28;20800;-62
2022/08/15 03:48:54;;;;;;;0.40;0.30;;;;;;;18.30;100.00;94677.13;5073279;28;20937;-62
2022/08/15 03:51:27;;;;;;;0.40;0.20;;;;;;;18.02;100.00;94611.81;5073493;28;20425;-62
2022/08/15 03:54:00;;;;;;;0.40;0.30;;;;;;;18.63;100.00;94674.38;5073226;28;20501;-62
2022/08/15 03:56:33;;;;;;;0.40;0.30;;;;;;;18.73;100.00;94683.91;5072314;28;20503;-62
2022/08/15 03:59:04;;;;;;;0.80;0.40;;;;;;;18.78;100.00;94679.09;5073080;28;20428;-62
2022/08/15 04:01:42;;;;;;;0.40;0.30;;;;;;;18.44;100.00;94630.41;5073048;28;20417;-62
2022/08/15 04:04:10;;;;;;;0.50;0.40;;;;;;;19.00;100.00;94688.56;5072740;28;20425;-61
2022/08/15 04:06:46;;;;;;;0.40;0.20;;;;;;;19.02;100.00;94691.72;5073198;28;20449;-61
2022/08/15 04:09:28;;;;;;;0.57;0.30;;;;;;;18.17;100.00;94693.50;5073130;28;20847;-62
2022/08/15 04:11:58;;;;;;;0.50;0.40;;;;;;;18.21;100.00;94689.06;5073033;28;20504;-62
2022/08/15 04:14:28;;;;;;;0.40;0.30;;;;;;;18.68;100.00;94698.31;5072526;28;20936;-61
2022/08/15 04:17:00;;;;;;;0.40;0.30;;;;;;;19.05;100.00;94696.41;5071645;28;20432;-61
2022/08/15 04:19:45;;;;;;;0.60;0.37;;;;;;;18.79;100.00;94653.03;5071962;28;20476;-62
2022/08/15 04:22:17;;;;;;;0.40;0.20;;;;;;;18.93;100.00;94678.41;5070652;28;21047;-61
2022/08/15 04:25:09;;;;;;;0.40;0.20;;;;;;;19.00;100.00;94681.31;5071307;28;20488;-61
2022/08/15 04:27:47;;;;;;;0.40;0.30;;;;;;;18.76;100.00;94645.63;5071338;28;20421;-61
2022/08/15 04:30:22;;;;;;;0.40;0.20;;;;;;;19.02;100.00;94692.50;5071335;28;20840;-61
2022/08/15 04:32:52;;;;;;;0.73;0.50;;;;;;;18.62;100.00;94688.91;5071635;28;20496;-61
2022/08/15 04:35:44;;;;;;;0.40;0.40;;;;;;;18.76;100.00;94677.84;5072112;28;20883;-61
2022/08/15 04:38:13;;;;;;;0.40;0.30;;;;;;;18.88;100.00;94686.69;5072241;28;20430;-60
2022/08/15 04:40:45;;;;;;;0.50;0.30;;;;;;;19.02;100.00;94702.47;5072291;28;20436;-60
2022/08/15 04:43:34;;;;;;;0.50;0.43;;;;;;;19.01;100.00;94690.16;5072442;28;20449;-60
2022/08/15 04:46:05;;;;;;;0.40;0.30;;;;;;;19.07;100.00;94685.34;5072484;28;20847;-60
2022/08/15 04:48:41;;;;;;;0.90;0.43;;;;;;;18.90;100.00;94692.50;5072440;28;20421;-60
2022/08/15 04:51:10;;;;;;;0.40;0.30;;;;;;;19.21;100.00;94688.44;5072170;28;20428;-60
2022/08/15 04:53:44;;;;;;;1.20;1.20;;;;;;;18.51;100.00;94703.91;5071939;28;20520;-59
2022/08/15 04:56:22;;;;;;;0.50;0.30;;;;;;;18.29;100.00;94706.97;5072335;28;20440;-59
2022/08/15 04:59:10;;;;;;;0.60;0.50;;;;;;;18.80;100.00;94701.00;5071681;28;20429;-60
2022/08/15 05:01:59;;;;;;;1.53;0.80;;;;;;;18.16;100.00;94708.84;5071850;28;20437;-60
2022/08/15 05:04:49;;;;;;;6.20;0.80;;;;;;;18.27;100.00;94711.84;5071783;28;20476;-60
2022/08/15 05:07:18;;;;;;;0.40;0.30;;;;;;;18.81;100.00;94721.38;5072083;28;20421;-59
2022/08/15 05:09:46;;;;;;;0.53;0.53;;;;;;;19.19;100.00;94725.63;5071856;28;21039;-60
2022/08/15 05:12:28;;;;;;;0.50;0.30;;;;;;;19.30;100.00;94729.44;5071845;28;20907;-59
2022/08/15 05:15:01;;;;;;;0.40;0.33;;;;;;;18.92;100.00;94711.75;5071014;28;20782;-59
2022/08/15 05:17:31;;;;;;;0.60;0.40;;;;;;;19.44;100.00;94727.19;5071487;28;21010;-60
2022/08/15 05:20:22;;;;;;;0.50;0.50;;;;;;;19.62;100.00;94715.84;5071526;28;20437;-60
2022/08/15 05:22:58;;;;;;;0.40;0.30;;;;;;;19.58;100.00;94727.63;5071594;28;20931;-60
2022/08/15 05:25:30;;;;;;;0.40;0.27;;;;;;;19.63;100.00;94719.31;5071487;28;20469;-59
2022/08/15 05:28:00;;;;;;;0.50;0.47;;;;;;;19.55;100.00;94709.47;5071984;28;20417;-60
2022/08/15 05:30:49;;;;;;;0.50;0.43;;;;;;;19.80;100.00;94694.84;5071423;28;20941;-60
2022/08/15 05:33:27;;;;;;;0.50;0.40;;;;;;;20.19;100.00;94712.81;5071550;28;20425;-60
2022/08/15 05:36:18;;;;;;;0.50;0.43;;;;;;;20.34;100.00;94719.38;5071710;28;20417;-59
2022/08/15 05:38:59;;;;;;;0.93;0.43;;;;;;;20.34;100.00;94707.84;5071705;28;20495;-60
2022/08/15 05:41:34;;;;;;;1.23;0.80;;;;;;;19.94;100.00;94708.66;5071425;28;20513;-60
2022/08/15 05:44:12;;;;;;;0.80;0.80;;;;;;;20.07;100.00;94706.69;5071383;28;20516;-60
2022/08/15 05:47:09;;;;;;;0.40;0.20;;;;;;;20.61;100.00;94704.31;5071250;28;20491;-61
2022/08/15 05:49:50;;;;;;;0.60;0.50;;;;;;;21.04;100.00;94700.72;5071691;28;20513;-59
2022/08/15 05:52:34;;;;;;;0.70;0.70;;;;;;;20.82;100.00;94704.84;5071241;28;20417;-59
2022/08/15 05:55:16;;;;;;;0.50;0.33;;;;;;;20.88;100.00;94706.13;5071243;28;20464;-59
2022/08/15 05:57:57;;;;;;;0.70;0.70;;;;;;;21.01;100.00;94696.81;5071174;28;20421;-59
2022/08/15 06:00:27;;;;;;;0.80;0.43;;;;;;;21.62;100.00;94704.38;5071499;28;20457;-58
2022/08/15 06:02:59;;;;;;;0.57;0.30;;;;;;;21.96;100.00;94706.28;5071178;28;20830;-58
2022/08/15 06:05:31;;;;;;;1.30;0.60;;;;;;;22.16;100.00;94699.72;5071134;28;20465;-58
2022/08/15 06:08:11;;;;;;;0.60;0.50;;;;;;;22.48;100.00;94713.81;5071203;28;20425;-57
2022/08/15 06:11:04;;;;;;;1.37;1.33;;;;;;;22.41;100.00;94700.97;5071161;28;20437;-59
2022/08/15 06:13:38;;;;;;;0.67;0.63;;;;;;;22.54;100.00;94705.03;5071163;28;20893;-59
2022/08/15 06:16:16;;;;;;;0.70;0.70;;;;;;;22.75;100.00;94710.06;5071100;28;20513;-59
2022/08/15 06:19:07;;;;;;;0.80;0.43;;;;;;;22.04;100.00;94664.75;5070966;28;21002;-59
2022/08/15 06:21:42;;;;;;;2.23;1.03;;;;;;;21.91;100.00;94707.31;5070919;28;20453;-59
2022/08/15 06:24:20;;;;;;;1.57;0.80;;;;;;;21.73;100.00;94697.28;5070954;28;20956;-58
2022/08/15 06:27:05;;;;;;;1.00;0.57;;;;;;;22.66;100.00;94696.00;5073334;28;20551;-59
2022/08/15 06:29:59;;;;;;;1.47;0.53;;;;;;;23.51;100.00;94684.59;5074697;28;20479;-59
2022/08/15 06:32:37;;;;;;;0.60;0.60;;;;;;;23.20;100.00;94685.69;5074689;28;20528;-58
2022/08/15 06:35:16;;;;;;;3.00;1.03;;;;;;;22.30;100.00;94689.19;5074825;28;20417;-58
2022/08/15 06:37:57;;;;;;;0.67;0.57;;;;;;;22.63;100.00;94680.53;5074395;28;20524;-58
2022/08/15 06:40:39;;;;;;;1.53;0.87;;;;;;;22.64;100.00;94677.44;5074794;28;20432;-58
2022/08/15 06:43:09;;;;;;;1.00;1.00;;;;;;;22.73;100.00;94677.22;5074519;28;20456;-58
2022/08/15 06:45:40;;;;;;;0.77;0.77;;;;;;;23.18;100.00;94689.88;5074565;28;20540;-58
2022/08/15 06:48:21;;;;;;;1.43;0.80;;;;;;;23.21;100.00;94689.16;5074563;28;20806;-58
2022/08/15 06:51:12;;;;;;;2.20;1.43;;;;;;;23.05;100.00;94685.81;5074253;28;20528;-57
2022/08/15 06:53:47;;;;;;;1.00;0.70;;;;;;;22.67;100.00;94687.53;5074338;28;20475;-58
2022/08/15 06:56:25;;;;;;;0.80;0.80;;;;;;;23.49;100.00;94688.81;5074172;28;20417;-57
2022/08/15 06:59:02;;;;;;;0.63;0.53;;;;;;;23.63;100.00;94683.63;5074123;28;20421;-57
2022/08/15 07:01:46;;;;;;;0.70;0.40;;;;;;;24.38;100.00;94683.34;5073480;28;20425;-57
2022/08/15 07:04:47;;;;;;;0.63;0.63;;;;;;;23.98;100.00;94695.63;5074514;28;20986;-56
2022/08/15 07:07:22;;;;;;;1.10;1.10;;;;;;;23.99;100.00;94686.38;5074052;28;20919;-57
2022/08/15 07:10:03;;;;;;;0.40;0.30;;;;;;;24.51;95.42;94652.13;5074092;28;20421;-56
2022/08/15 07:12:42;;;;;;;0.73;0.73;;;;;;;24.59;96.53;94699.84;5074168;28;20413;-57
2022/08/15 07:15:27;;;;;;;5.63;1.20;;;;;;;23.56;100.00;94700.50;5073988;28;20425;-57
2022/08/15 07:18:01;;;;;;;1.10;0.97;;;;;;;23.53;100.00;94701.25;5073692;28;20945;-57
2022/08/15 07:20:30;;;;;;;0.70;0.50;;;;;;;24.81;97.82;94700.81;5073628;28;20433;-58
2022/08/15 07:23:17;;;;;;;0.60;0.50;;;;;;;25.71;90.12;94691.81;5074185;28;20453;-58
2022/08/15 07:25:48;;;;;;;1.53;0.60;;;;;;;26.28;90.07;94687.41;5073958;28;20499;-57
2022/08/15 07:28:25;;;;;;;0.77;0.57;;;;;;;25.78;82.16;94693.75;5073629;28;20421;-58
2022/08/15 07:31:03;;;;;;;0.93;0.70;;;;;;;25.21;84.56;94701.53;5073877;28;20420;-59
2022/08/15 07:33:36;;;;;;;1.00;0.87;;;;;;;25.83;82.54;94705.03;5073645;28;20421;-59
2022/08/15 07:36:20;;;;;;;0.70;0.57;;;;;;;26.21;82.47;94697.50;5073521;28;20417;-59
2022/08/15 07:38:57;;;;;;;1.20;1.20;;;;;;;26.76;70.84;94703.44;5072919;28;20433;-59
2022/08/15 07:41:30;;;;;;;2.37;1.60;;;;;;;26.70;68.13;94710.41;5073507;28;20517;-58
2022/08/15 07:44:19;;;;;;;0.90;0.90;;;;;;;26.49;66.47;94646.69;5073493;28;20425;-58
2022/08/15 07:46:52;;;;;;;1.13;1.07;;;;;;;27.47;61.29;94705.03;5073800;28;20499;-59
2022/08/15 07:49:27;;;;;;;0.77;0.77;;;;;;;27.59;69.11;94712.00;5073853;28;20456;-58
2022/08/15 07:52:03;;;;;;;0.97;0.97;;;;;;;27.68;69.02;94707.72;5073393;28;20943;-59
2022/08/15 07:54:44;;;;;;;0.70;0.63;;;;;;;27.87;62.39;94709.22;5073587;28;20502;-57
2022/08/15 07:57:24;;;;;;;1.10;1.10;;;;;;;27.82;59.96;94696.00;5073355;28;20426;-58
2022/08/15 08:00:21;;;;;;;0.80;0.50;;;;;;;28.27;57.35;94697.03;5073188;28;20445;-58
2022/08/15 08:03:16;;;;;;;0.40;0.30;;;;;;;28.78;56.48;94702.63;5073386;28;20440;-58
2022/08/15 08:05:55;;;;;;;1.50;1.40;;;;;;;28.92;49.69;94704.44;5073169;28;20486;-58
2022/08/15 08:08:32;;;;;;;1.20;1.07;;;;;;;29.27;51.05;94689.81;5073493;28;20492;-57
2022/08/15 08:11:22;;;;;;;0.50;0.40;;;;;;;30.70;46.77;94703.03;5072879;28;20868;-57
2022/08/15 08:14:00;;;;;;;0.73;0.50;;;;;;;29.73;52.35;94705.75;5073372;28;20444;-57
2022/08/15 08:16:40;;;;;;;0.90;0.90;;;;;;;28.58;50.71;94707.00;5073271;28;20452;-56
2022/08/15 08:19:21;;;;;;;1.30;1.20;;;;;;;28.58;51.70;94707.00;5072525;28;20883;-57
2022/08/15 08:22:02;;;;;;;0.40;0.40;;;;;;;29.63;53.47;94701.16;5072785;28;20417;-57
2022/08/15 08:24:59;;;;;;;0.60;0.57;;;;;;;29.91;48.73;94701.66;5072798;28;20428;-56
2022/08/15 08:27:44;;;;;;;0.40;0.40;;;;;;;29.81;47.95;94705.28;5072482;28;20545;-58
2022/08/15 08:30:24;;;;;;;0.53;0.50;;;;;;;30.35;44.32;94695.31;5072231;28;20935;-56
2022/08/15 08:33:24;;;;;;;0.60;0.40;;;;;;;31.56;43.03;94683.34;5072337;28;20515;-57
2022/08/15 08:35:57;;;;;;;0.70;0.60;;;;;;;30.67;43.24;94694.88;5072665;28;20577;-57
2022/08/15 08:38:37;;;;;;;0.60;0.60;;;;;;;31.63;42.22;94680.47;5072805;28;20507;-57
2022/08/15 08:41:36;;;;;;;2.40;0.60;;;;;;;32.27;38.88;94680.81;5072197;28;20443;-57
2022/08/15 08:44:25;;;;;;;1.10;0.90;;;;;;;32.23;39.09;94679.34;5072397;28;20427;-56
2022/08/15 08:47:10;;;;;;;2.10;0.67;;;;;;;32.19;42.25;94670.41;5072233;28;20597;-57
2022/08/15 08:49:53;;;;;;;1.27;1.17;;;;;;;32.03;42.63;94632.72;5071340;28;20466;-56
2022/08/15 08:52:45;;;;;;;0.70;0.70;;;;;;;32.24;40.17;94639.75;5072059;28;20955;-56
2022/08/15 08:55:28;;;;;;;0.50;0.50;;;;;;;32.44;41.56;94657.72;5072159;28;20786;-56
2022/08/15 08:58:19;;;;;;;0.50;0.50;;;;;;;31.86;39.54;94658.50;5072473;28;20474;-56
2022/08/15 09:01:12;;;;;;;0.60;0.60;;;;;;;32.83;38.93;94654.13;5072310;28;20428;-56
2022/08/15 09:03:47;;;;;;;1.00;0.87;;;;;;;32.59;39.64;94664.47;5072285;28;20430;-56
2022/08/15 09:06:23;;;;;;;0.50;0.50;;;;;;;32.47;37.96;94662.34;5071549;28;20429;-56
2022/08/15 09:09:01;;;;;;;0.50;0.50;;;;;;;32.01;41.92;94657.84;5072050;28;20430;-56
2022/08/15 09:11:37;;;;;;;0.47;0.40;;;;;;;32.35;41.87;94663.03;5072337;28;20513;-56
2022/08/15 09:14:20;;;;;;;0.87;0.60;;;;;;;32.82;36.29;94654.53;5071973;28;20429;-56
2022/08/15 09:17:06;;;;;;;0.93;0.93;;;;;;;31.65;37.79;94661.66;5071749;28;20976;-55
2022/08/15 09:20:04;;;;;;;0.83;0.83;;;;;;;32.31;37.60;94645.84;5071942;28;20437;-55
2022/08/15 09:22:34;;;;;;;0.70;0.70;;;;;;;33.46;37.40;94649.06;5071400;28;20516;-56
2022/08/15 09:25:02;;;;;;;0.47;0.40;;;;;;;31.97;38.07;94648.13;5072095;28;20529;-56
2022/08/15 09:27:46;;;;;;;0.53;0.53;;;;;;;32.75;38.69;94643.75;5071794;28;20521;-56
2022/08/15 09:30:26;;;;;;;0.90;0.67;;;;;;;32.28;37.90;94643.97;5071363;28;20963;-58
2022/08/15 09:33:30;;;;;;;1.07;0.97;;;;;;;32.92;37.67;94646.06;5071552;28;20445;-56
2022/08/15 09:36:27;;;;;;;0.40;0.30;;;;;;;32.94;36.83;94604.47;5071971;28;20489;-56
2022/08/15 09:39:16;;;;;;;0.70;0.63;;;;;;;32.98;39.14;94594.94;5072140;28;20433;-56
2022/08/15 09:42:01;;;;;;;0.60;0.60;;;;;;;33.35;37.36;94604.59;5071645;28;20868;-55
2022/08/15 09:44:59;;;;;;;0.77;0.77;;;;;;;33.92;36.25;94605.84;5071890;28;20530;-56
2022/08/15 09:48:03;;;;;;;1.03;0.50;;;;;;;34.46;37.15;94625.88;5071379;28;20878;-56
2022/08/15 09:51:02;;;;;;;0.80;0.60;;;;;;;34.79;34.88;94620.94;5054423;28;20446;-57
2022/08/15 09:53:44;;;;;;;0.50;0.50;;;;;;;34.62;35.87;94617.56;5071960;28;20443;-56
2022/08/15 09:56:31;;;;;;;0.60;0.60;;;;;;;33.88;35.43;94623.22;5072106;28;20416;-57
2022/08/15 09:59:11;;;;;;;1.37;0.80;;;;;;;34.61;38.48;94620.75;5071902;28;20428;-56
2022/08/15 10:01:53;;;;;;;1.13;1.13;;;;;;;34.73;34.48;94620.75;5074169;28;20421;-56
2022/08/15 10:04:40;;;;;;;2.40;1.70;;;;;;;33.45;35.97;94633.78;5076049;28;20420;-56
2022/08/15 10:07:45;;;;;;;2.10;2.00;;;;;;;34.32;38.38;94616.09;5075679;28;20481;-56
2022/08/15 10:10:20;;;;;;;0.97;0.97;;;;;;;34.87;36.90;94589.22;5054108;28;20451;-56
2022/08/15 10:13:18;;;;;;;1.93;0.70;;;;;;;35.18;35.78;94603.97;5075580;28;21045;-56
2022/08/15 10:15:48;;;;;;;1.07;1.07;;;;;;;34.03;34.91;94603.56;5075538;28;20507;-56
2022/08/15 10:18:56;;;;;;;0.50;0.50;;;;;;;34.65;34.98;94597.41;5075173;28;20273;-56
2022/08/15 10:21:35;;;;;;;3.83;1.13;;;;;;;33.46;35.53;94602.38;5074992;28;20440;-56
2022/08/15 10:24:21;;;;;;;0.70;0.70;;;;;;;34.08;35.29;94546.06;5075551;28;20542;-56
2022/08/15 10:27:12;;;;;;;0.87;0.70;;;;;;;34.84;35.87;94596.38;5075137;28;20229;-56
2022/08/15 10:29:50;;;;;;;0.80;0.80;;;;;;;34.97;37.59;94590.88;5075220;28;20198;-56
2022/08/15 10:32:35;;;;;;;0.80;0.70;;;;;;;34.86;34.99;94590.47;5074994;28;20656;-56
2022/08/15 10:35:28;;;;;;;0.80;0.80;;;;;;;35.22;34.61;94582.56;5075078;28;20692;-57
2022/08/15 10:38:02;;;;;;;0.50;0.40;;;;;;;35.51;34.31;94587.88;5075260;28;20939;-56
2022/08/15 10:41:00;;;;;;;0.30;0.30;;;;;;;35.43;34.02;94586.59;5074879;28;20948;-56
2022/08/15 10:43:53;;;;;;;0.67;0.60;;;;;;;35.40;33.21;94590.22;5069437;28;20202;-56
2022/08/15 10:46:41;;;;;;;0.67;0.67;;;;;;;33.86;34.83;94545.91;5074842;28;20195;-56
2022/08/15 10:49:27;;;;;;;0.70;0.60;;;;;;;34.71;36.18;94581.13;5074882;28;20626;-56
2022/08/15 10:52:20;;;;;;;0.40;0.40;;;;;;;35.60;33.59;94574.19;5074896;28;20213;-56
2022/08/15 10:55:08;;;;;;;0.67;0.67;;;;;;;35.65;31.29;94571.63;5074572;28;20590;-56
2022/08/15 10:57:48;;;;;;;0.70;0.70;;;;;;;36.50;31.53;94568.50;5074383;28;20714;-59
2022/08/15 11:00:43;;;;;;;0.80;0.70;;;;;;;35.80;31.38;94511.22;5074734;28;20300;-57
2022/08/15 11:03:27;;;;;;;0.60;0.60;;;;;;;36.36;30.69;94577.28;5074411;28;20210;-56
2022/08/15 11:06:17;;;;;;;0.93;0.73;;;;;;;37.07;30.23;94569.00;5073382;28;20190;-56
2022/08/15 11:08:53;;;;;;;0.73;0.73;;;;;;;35.27;30.81;94551.69;5074132;28;20202;-56
2022/08/15 11:11:24;;;;;;;0.40;0.30;;;;;;;35.77;30.74;94561.00;5073649;28;20640;-56
2022/08/15 11:13:56;;;;;;;4.73;0.70;;;;;;;35.56;30.54;94562.53;5073382;28;20213;-56
2022/08/15 11:16:35;;;;;;;1.00;1.00;;;;;;;36.50;30.02;94556.69;5074149;28;20226;-56
2022/08/15 11:19:19;;;;;;;0.53;0.53;;;;;;;35.49;31.60;94554.50;5073913;28;20316;-56
2022/08/15 11:22:19;;;;;;;0.80;0.80;;;;;;;34.40;31.85;94562.38;5074122;28;20205;-55
2022/08/15 11:25:00;;;;;;;0.70;0.70;;;;;;;34.89;33.21;94504.22;5073900;28;20202;-55
2022/08/15 11:27:30;;;;;;;0.90;0.87;;;;;;;35.54;30.63;94554.72;5074186;28;20203;-56
2022/08/15 11:30:03;;;;;;;0.60;0.60;;;;;;;36.92;28.47;94564.03;5073254;28;20240;-56
2022/08/15 11:32:52;;;;;;;1.00;0.50;;;;;;;37.11;29.34;94558.56;5073669;28;20636;-55
2022/08/15 11:35:27;;;;;;;0.77;0.70;;;;;;;36.66;29.73;94562.72;5073574;28;20201;-56
2022/08/15 11:37:59;;;;;;;0.77;0.77;;;;;;;36.43;29.60;94543.91;5073682;28;20218;-56
2022/08/15 11:40:30;;;;;;;0.90;0.90;;;;;;;35.77;29.75;94556.25;5073545;28;20372;-56
2022/08/15 11:43:03;;;;;;;1.50;0.60;;;;;;;36.47;30.70;94546.53;5073617;28;20187;-56
2022/08/15 11:45:45;;;;;;;0.40;0.40;;;;;;;37.12;28.73;94552.56;5074053;28;20183;-56
2022/08/15 11:48:26;;;;;;;0.80;0.80;;;;;;;36.17;30.84;94557.13;5073845;28;20280;-57
2022/08/15 11:51:09;;;;;;;0.63;0.63;;;;;;;37.65;28.56;94535.75;5073882;28;20274;-57
2022/08/15 11:53:42;;;;;;;0.50;0.50;;;;;;;37.47;28.66;94551.09;5073741;28;20268;-55
2022/08/15 11:56:23;;;;;;;0.47;0.30;;;;;;;37.07;30.28;94550.41;5073363;28;20190;-56
2022/08/15 11:59:19;;;;;;;0.30;0.30;;;;;;;37.08;29.50;94540.91;5073348;28;20647;-56
2022/08/15 12:02:03;;;;;;;0.60;0.60;;;;;;;35.90;30.50;94542.41;5073116;28;20225;-56
2022/08/15 12:04:34;;;;;;;0.75;0.75;;;;;;;34.79;30.70;94550.13;5073236;28;20281;-56
2022/08/15 12:07:27;;;;;;;0.40;0.33;;;;;;;34.71;31.17;94534.31;5072908;28;20198;-56
2022/08/15 12:10:00;;;;;;;0.50;0.50;;;;;;;35.72;30.94;94521.75;5072697;28;20279;-56
2022/08/15 12:12:44;;;;;;;0.83;0.83;;;;;;;35.49;29.71;94502.13;5073150;28;20670;-56
2022/08/15 12:15:16;;;;;;;0.50;0.50;;;;;;;35.81;30.40;94490.69;5073235;28;20190;-55
2022/08/15 12:18:05;;;;;;;2.93;2.73;;;;;;;36.30;29.01;94546.00;5072707;28;20697;-56
2022/08/15 12:20:41;;;;;;;1.80;0.77;;;;;;;35.93;30.11;94538.72;5072749;28;20194;-56
2022/08/15 12:23:24;;;;;;;0.70;0.50;;;;;;;36.08;29.89;94543.28;5072882;28;20208;-56
2022/08/15 12:25:54;;;;;;;1.20;1.10;;;;;;;35.89;29.35;94505.75;5072656;28;20247;-55
2022/08/15 12:28:23;;;;;;;0.60;0.60;;;;;;;36.09;30.07;94539.31;5072347;28;20278;-56
2022/08/15 12:31:21;;;;;;;0.70;0.67;;;;;;;35.72;29.81;94542.28;5072407;28;20788;-56